createdAt,value
2018-12-19T00:00:00.760Z,92.87
2018-12-19T00:02:30.292Z,92.88
2018-12-19T00:05:00.027Z,92.88
2018-12-19T00:07:29.554Z,93.13
2018-12-19T00:09:59.116Z,93.05
2018-12-19T00:12:28.642Z,92.58
2018-12-19T00:14:58.180Z,93.15
2018-12-19T00:17:27.771Z,92.98
2018-12-19T00:19:58.338Z,92.86
2018-12-19T00:22:28.174Z,92.62
2018-12-19T00:24:57.962Z,92.44
2018-12-19T00:27:27.514Z,92.70
2018-12-19T00:29:57.249Z,92.63
2018-12-19T00:32:26.882Z,92.71
2018-12-19T00:34:56.450Z,93.18
2018-12-19T00:37:26.181Z,93.19
2018-12-19T00:39:55.757Z,93.02
2018-12-19T00:42:25.284Z,93.13
2018-12-19T00:44:54.853Z,92.77
2018-12-19T00:47:24.385Z,92.97
2018-12-19T00:53:00.773Z,92.28
2018-12-19T00:55:30.211Z,92.53
2018-12-19T00:57:59.634Z,92.95
2018-12-19T01:00:29.099Z,92.82
2018-12-19T01:02:58.577Z,93.26
2018-12-19T01:05:27.966Z,92.81
2018-12-19T01:07:57.406Z,92.45
2018-12-19T01:10:26.826Z,92.41
2018-12-19T01:12:56.236Z,92.57
2018-12-19T01:15:25.742Z,92.42
2018-12-19T01:17:55.120Z,92.46
2018-12-19T01:20:24.536Z,92.84
2018-12-19T01:22:54.005Z,92.66
2018-12-19T01:25:23.569Z,92.62
2018-12-19T01:27:52.969Z,91.95
2018-12-19T01:30:22.553Z,92.32
2018-12-19T01:32:51.945Z,92.38
2018-12-19T01:35:21.346Z,92.20
2018-12-19T01:37:50.769Z,91.96
2018-12-19T01:40:20.205Z,92.49
2018-12-19T01:42:49.685Z,92.13
2018-12-19T01:45:19.805Z,92.71
2018-12-19T01:47:49.697Z,92.48
2018-12-19T01:50:19.512Z,92.33
2018-12-19T01:52:48.973Z,91.82
2018-12-19T01:55:18.478Z,92.41
2018-12-19T01:57:47.971Z,91.88
2018-12-19T02:00:17.666Z,92.19
2018-12-19T02:02:47.228Z,92.07
2018-12-19T02:05:16.597Z,91.85
2018-12-19T02:07:46.029Z,92.03
2018-12-19T02:10:16.772Z,91.71
2018-12-19T02:12:46.234Z,91.96
2018-12-19T02:15:15.705Z,91.70
2018-12-19T02:17:45.268Z,91.66
2018-12-19T02:20:15.229Z,91.38
2018-12-19T02:22:44.712Z,91.53
2018-12-19T02:25:14.153Z,91.32
2018-12-19T02:27:43.611Z,91.44
2018-12-19T02:30:13.293Z,91.14
2018-12-19T02:32:42.788Z,91.24
2018-12-19T02:35:12.274Z,91.04
2018-12-19T02:37:41.867Z,91.25
2018-12-19T02:40:11.342Z,91.06
2018-12-19T02:42:40.839Z,91.04
2018-12-19T02:48:16.592Z,90.92
2018-12-19T02:50:46.162Z,91.25
2018-12-19T02:53:15.866Z,91.08
2018-12-19T02:55:45.300Z,90.73
2018-12-19T02:58:14.833Z,90.98
2018-12-19T03:03:39.970Z,90.66
2018-12-19T03:06:09.378Z,91.29
2018-12-19T03:08:38.843Z,91.37
2018-12-19T03:11:08.820Z,90.71
2018-12-19T03:13:38.486Z,91.19
2018-12-19T03:16:07.916Z,91.01
2018-12-19T03:18:37.414Z,90.66
2018-12-19T03:21:06.901Z,90.03
2018-12-19T03:23:36.332Z,90.62
2018-12-19T03:26:05.814Z,90.91
2018-12-19T03:28:35.367Z,90.34
2018-12-19T03:31:04.908Z,90.61
2018-12-19T03:33:34.394Z,90.13
2018-12-19T03:36:03.909Z,90.06
2018-12-19T03:38:33.419Z,89.90
2018-12-19T03:41:02.989Z,89.53
2018-12-19T03:43:32.480Z,89.56
2018-12-19T03:46:01.940Z,89.71
2018-12-19T03:48:37.410Z,89.77
2018-12-19T03:51:06.820Z,90.10
2018-12-19T03:53:36.255Z,90.68
2018-12-19T03:56:05.810Z,90.31
2018-12-19T03:58:35.216Z,90.03
2018-12-19T04:01:04.724Z,88.92
2018-12-19T04:03:34.625Z,89.68
2018-12-19T04:06:04.254Z,89.80
2018-12-19T04:08:33.695Z,89.91
2018-12-19T04:11:03.277Z,89.23
2018-12-19T04:13:32.710Z,89.20
2018-12-19T04:16:02.273Z,89.71
2018-12-19T04:18:31.682Z,89.84
2018-12-19T04:21:01.143Z,90.20
2018-12-19T04:23:30.639Z,89.63
2018-12-19T04:26:00.056Z,90.26
2018-12-19T04:28:29.455Z,89.86
2018-12-19T04:30:58.876Z,89.49
2018-12-19T04:33:28.268Z,89.77
2018-12-19T04:35:57.719Z,89.64
2018-12-19T04:38:27.446Z,89.58
2018-12-19T04:40:56.913Z,89.61
2018-12-19T04:43:26.316Z,89.70
2018-12-19T04:45:55.811Z,89.41
2018-12-19T04:48:25.665Z,89.67
2018-12-19T04:50:55.272Z,89.87
2018-12-19T04:53:24.751Z,89.85
2018-12-19T04:55:54.256Z,89.85
2018-12-19T04:58:23.745Z,90.08
2018-12-19T05:00:53.361Z,89.56
2018-12-19T05:03:22.737Z,89.38
2018-12-19T05:05:52.182Z,89.33
2018-12-19T05:08:21.660Z,89.67
2018-12-19T05:10:51.041Z,89.17
2018-12-19T05:13:20.439Z,89.27
2018-12-19T05:15:49.993Z,88.80
2018-12-19T05:18:19.393Z,89.37
2018-12-19T05:20:49.189Z,88.96
2018-12-19T05:26:19.191Z,88.88
2018-12-19T05:29:02.362Z,89.60
2018-12-19T05:31:42.829Z,89.27
2018-12-19T05:34:13.946Z,89.24
2018-12-19T05:36:44.247Z,89.23
2018-12-19T05:39:13.802Z,89.06
2018-12-19T05:41:43.517Z,89.47
2018-12-19T05:57:16.138Z,88.56
2018-12-19T05:59:45.513Z,88.56
2018-12-19T06:02:14.879Z,89.02
2018-12-19T06:04:44.268Z,88.29
2018-12-19T06:07:13.652Z,88.53
2018-12-19T06:09:43.055Z,88.53
2018-12-19T06:12:12.668Z,88.66
2018-12-19T06:14:42.239Z,88.67
2018-12-19T06:17:11.632Z,88.49
2018-12-19T06:19:41.161Z,88.38
2018-12-19T06:22:10.544Z,88.21
2018-12-19T06:27:36.672Z,87.70
2018-12-19T06:30:06.857Z,87.94
2018-12-19T06:32:36.417Z,87.66
2018-12-19T06:35:06.212Z,87.58
2018-12-19T06:37:35.692Z,88.04
2018-12-19T06:40:06.898Z,87.76
2018-12-19T06:42:45.752Z,87.79
2018-12-19T06:45:15.129Z,87.56
2018-12-19T06:47:44.517Z,87.49
2018-12-19T06:50:13.922Z,87.09
2018-12-19T06:52:43.294Z,87.18
2018-12-19T06:55:12.652Z,87.18
2018-12-19T06:57:42.080Z,86.93
2018-12-19T07:00:11.673Z,86.69
2018-12-19T07:02:41.096Z,86.51
2018-12-19T07:05:10.526Z,86.30
2018-12-19T07:07:39.869Z,86.33
2018-12-19T07:10:09.485Z,85.94
2018-12-19T07:12:53.843Z,86.15
2018-12-19T07:15:23.400Z,86.06
2018-12-19T07:21:09.250Z,85.47
2018-12-19T07:23:50.797Z,86.32
2018-12-19T07:26:20.195Z,86.16
2018-12-19T07:28:49.601Z,85.78
2018-12-19T07:31:18.982Z,86.15
2018-12-19T07:33:48.421Z,86.02
2018-12-19T07:36:17.794Z,85.86
2018-12-19T07:38:47.206Z,85.39
2018-12-19T07:41:16.658Z,85.40
2018-12-19T07:43:46.056Z,85.62
2018-12-19T07:46:19.770Z,85.26
2018-12-19T07:48:47.020Z,85.37
2018-12-19T07:51:16.431Z,84.92
2018-12-19T07:53:45.874Z,84.96
2018-12-19T07:56:16.210Z,84.99
2018-12-19T07:58:45.669Z,85.29
2018-12-19T08:01:15.153Z,85.14
2018-12-19T08:03:44.577Z,84.79
2018-12-19T08:06:14.121Z,85.07
2018-12-19T08:08:43.503Z,85.31
2018-12-19T08:14:09.741Z,84.56
2018-12-19T08:16:39.239Z,84.75
2018-12-19T08:19:08.801Z,85.11
2018-12-19T08:21:38.377Z,84.96
2018-12-19T08:24:07.935Z,84.80
2018-12-19T08:26:37.646Z,84.74
2018-12-19T08:29:07.125Z,84.83
2018-12-19T08:31:36.597Z,84.75
2018-12-19T08:34:06.784Z,83.99
2018-12-19T08:36:36.334Z,84.20
2018-12-19T08:39:08.182Z,84.35
2018-12-19T08:41:39.237Z,84.11
2018-12-19T08:44:08.750Z,83.91
2018-12-19T08:46:38.265Z,83.68
2018-12-19T08:49:07.725Z,84.08
2018-12-19T08:51:37.225Z,83.86
2018-12-19T08:54:07.384Z,83.33
2018-12-19T08:56:36.913Z,83.30
2018-12-19T08:59:06.436Z,83.13
2018-12-19T09:01:36.195Z,83.26
2018-12-19T09:04:05.789Z,83.56
2018-12-19T09:06:35.281Z,83.82
2018-12-19T09:09:07.484Z,83.12
2018-12-19T09:11:37.107Z,83.41
2018-12-19T09:14:06.925Z,83.03
2018-12-19T09:16:36.386Z,84.09
2018-12-19T09:19:06.140Z,83.97
2018-12-19T09:21:37.009Z,84.38
2018-12-19T09:24:35.211Z,84.69
2018-12-19T09:27:06.362Z,85.28
2018-12-19T09:29:36.175Z,85.55
2018-12-19T09:32:05.806Z,85.60
2018-12-19T09:34:35.195Z,86.25
2018-12-19T09:37:05.080Z,86.59
2018-12-19T09:39:34.952Z,86.96
2018-12-19T09:42:04.553Z,87.75
2018-12-19T09:44:34.390Z,87.13
2018-12-19T09:47:03.986Z,87.67
2018-12-19T09:49:33.597Z,87.81
2018-12-19T09:52:03.089Z,88.19
2018-12-19T09:54:32.778Z,88.92
2018-12-19T09:57:02.369Z,88.71
2018-12-19T09:59:31.853Z,89.06
2018-12-19T10:02:02.206Z,89.06
2018-12-19T10:04:31.896Z,88.92
2018-12-19T10:07:01.638Z,89.69
2018-12-19T10:09:31.185Z,89.59
2018-12-19T10:12:00.728Z,89.72
2018-12-19T10:14:30.258Z,89.11
2018-12-19T10:16:59.785Z,88.36
2018-12-19T10:19:29.293Z,89.09
2018-12-19T10:21:59.786Z,89.14
2018-12-19T10:24:34.777Z,88.36
2018-12-19T10:30:11.609Z,88.04
2018-12-19T10:32:42.184Z,88.62
2018-12-19T10:35:12.848Z,88.01
2018-12-19T10:37:42.367Z,88.66
2018-12-19T10:40:13.225Z,88.42
2018-12-19T10:42:42.784Z,87.54
2018-12-19T10:45:12.632Z,87.99
2018-12-19T10:47:42.385Z,87.96
2018-12-19T10:50:12.643Z,87.97
2018-12-19T10:52:42.115Z,87.78
2018-12-19T10:55:11.690Z,87.77
2018-12-19T10:57:42.035Z,87.80
2018-12-19T11:00:19.090Z,87.60
2018-12-19T11:02:48.713Z,88.18
2018-12-19T11:05:18.294Z,88.18
2018-12-19T11:07:47.747Z,88.23
2018-12-19T11:10:17.243Z,88.42
2018-12-19T11:12:46.724Z,88.34
2018-12-19T11:15:16.121Z,89.11
2018-12-19T11:17:45.560Z,89.41
2018-12-19T11:20:15.347Z,89.54
2018-12-19T11:22:45.673Z,90.03
2018-12-19T11:28:34.023Z,90.57
2018-12-19T11:31:03.531Z,90.54
2018-12-19T11:33:32.938Z,91.27
2018-12-19T11:36:12.741Z,91.30
2018-12-19T11:38:48.474Z,91.13
2018-12-19T11:41:18.028Z,91.89
2018-12-19T11:43:47.562Z,91.79
2018-12-19T11:46:17.065Z,91.32
2018-12-19T11:48:46.775Z,92.31
2018-12-19T11:51:17.682Z,92.05
2018-12-19T11:53:53.401Z,91.12
2018-12-19T11:56:28.586Z,91.34
2018-12-19T12:02:07.423Z,92.47
2018-12-19T12:05:05.979Z,92.91
2018-12-19T12:07:35.655Z,93.46
2018-12-19T12:10:06.342Z,93.91
2018-12-19T12:12:35.846Z,93.36
2018-12-19T12:15:06.652Z,93.37
2018-12-19T12:17:36.509Z,93.66
2018-12-19T12:20:08.794Z,93.55
2018-12-19T12:22:38.224Z,93.35
2018-12-19T12:25:07.784Z,93.26
2018-12-19T12:29:05.658Z,93.83
2018-12-19T12:31:35.152Z,93.34
2018-12-19T12:34:05.198Z,93.77
2018-12-19T12:36:34.741Z,94.08
2018-12-19T12:39:07.635Z,94.12
2018-12-19T12:41:37.337Z,94.00
2018-12-19T12:44:07.233Z,94.16
2018-12-19T12:46:37.302Z,93.84
2018-12-19T12:49:07.431Z,93.76
2018-12-19T12:51:37.275Z,94.25
2018-12-19T12:54:23.201Z,94.26
2018-12-19T12:56:52.751Z,94.51
2018-12-19T12:59:22.510Z,95.01
2018-12-19T13:01:52.609Z,94.67
2018-12-19T13:04:22.218Z,94.38
2018-12-19T13:06:51.966Z,94.80
2018-12-19T13:09:21.541Z,94.83
2018-12-19T13:11:51.552Z,94.74
2018-12-19T13:14:21.233Z,94.55
2018-12-19T13:16:50.634Z,93.82
2018-12-19T13:19:20.027Z,94.19
2018-12-19T13:21:49.501Z,94.92
2018-12-19T13:24:19.000Z,94.82
2018-12-19T13:26:48.411Z,94.45
2018-12-19T13:29:17.922Z,94.57
2018-12-19T13:31:47.541Z,94.55
2018-12-19T13:34:17.927Z,94.92
2018-12-19T13:36:53.751Z,94.85
2018-12-19T13:39:29.584Z,94.69
2018-12-19T13:42:05.756Z,94.84
2018-12-19T13:44:47.615Z,94.69
2018-12-19T13:47:17.030Z,95.09
2018-12-19T13:49:46.548Z,95.01
2018-12-19T13:52:16.025Z,95.27
2018-12-19T13:55:01.706Z,95.24
2018-12-19T13:57:31.441Z,95.12
2018-12-19T14:00:00.977Z,95.27
2018-12-19T14:02:30.373Z,95.39
2018-12-19T14:04:59.837Z,95.03
2018-12-19T14:07:29.255Z,94.84
2018-12-19T14:09:58.947Z,95.30
2018-12-19T14:12:28.414Z,95.19
2018-12-19T14:14:57.797Z,95.16
2018-12-19T14:17:27.259Z,95.25
2018-12-19T14:19:56.642Z,95.14
2018-12-19T14:22:26.032Z,95.49
2018-12-19T14:24:55.476Z,95.29
2018-12-19T14:27:24.852Z,94.98
2018-12-19T14:29:54.338Z,95.33
2018-12-19T14:32:23.760Z,95.20
2018-12-19T14:34:53.249Z,95.42
2018-12-19T14:37:22.608Z,95.26
2018-12-19T14:39:52.102Z,95.19
2018-12-19T14:42:21.478Z,95.60
2018-12-19T14:44:50.886Z,95.07
2018-12-19T14:47:20.328Z,95.09
2018-12-19T14:49:49.720Z,94.98
2018-12-19T14:52:19.137Z,95.32
2018-12-19T14:54:48.646Z,95.46
2018-12-19T14:57:18.034Z,95.38
2018-12-19T15:02:42.973Z,94.96
2018-12-19T15:05:12.352Z,95.52
2018-12-19T15:07:41.788Z,95.21
2018-12-19T15:10:11.837Z,95.43
2018-12-19T15:12:41.257Z,95.51
2018-12-19T15:15:10.871Z,95.04
2018-12-19T15:17:40.316Z,95.46
2018-12-19T15:20:10.087Z,95.47
2018-12-19T15:22:39.461Z,95.57
2018-12-19T15:25:08.953Z,95.66
2018-12-19T15:27:38.436Z,95.66
2018-12-19T15:30:08.121Z,95.27
2018-12-19T15:32:38.593Z,95.48
2018-12-19T15:35:08.410Z,95.65
2018-12-19T15:37:37.812Z,95.41
2018-12-19T15:40:14.277Z,95.36
2018-12-19T15:42:43.839Z,95.61
2018-12-19T15:45:13.253Z,95.72
2018-12-19T15:47:42.696Z,95.29
2018-12-19T15:50:12.203Z,95.35
2018-12-19T15:52:41.795Z,95.52
2018-12-19T15:55:11.281Z,95.76
2018-12-19T15:57:40.755Z,95.33
2018-12-19T16:03:16.410Z,95.48
2018-12-19T16:05:45.909Z,95.64
2018-12-19T16:08:15.408Z,95.50
2018-12-19T16:13:51.153Z,95.01
2018-12-19T16:19:17.326Z,95.11
2018-12-19T16:21:46.715Z,94.94
2018-12-19T16:24:16.147Z,95.29
2018-12-19T16:26:45.663Z,95.58
2018-12-19T16:29:19.561Z,95.18
2018-12-19T16:32:08.189Z,95.01
2018-12-19T16:34:37.608Z,94.98
2018-12-19T16:37:07.067Z,95.19
2018-12-19T16:39:42.717Z,94.63
2018-12-19T16:42:13.322Z,94.66
2018-12-19T16:44:42.852Z,94.76
2018-12-19T16:47:12.230Z,94.41
2018-12-19T16:49:41.628Z,94.43
2018-12-19T16:52:11.314Z,94.23
2018-12-19T16:54:46.846Z,94.53
2018-12-19T16:57:22.305Z,94.39
2018-12-19T16:59:59.527Z,94.16
2018-12-19T17:05:43.080Z,94.49
2018-12-19T17:08:12.460Z,94.16
2018-12-19T17:10:42.027Z,94.46
2018-12-19T17:16:11.683Z,94.50
2018-12-19T17:18:44.257Z,94.28
2018-12-19T17:21:13.796Z,94.47
2018-12-19T17:23:43.289Z,94.33
2018-12-19T17:26:12.657Z,94.16
2018-12-19T17:29:08.054Z,94.37
2018-12-19T17:31:37.491Z,94.15
2018-12-19T17:37:11.980Z,94.33
2018-12-19T17:42:47.640Z,94.60
2018-12-19T17:45:17.174Z,94.20
2018-12-19T17:47:46.564Z,94.00
2018-12-19T17:50:16.161Z,93.96
2018-12-19T17:52:45.595Z,94.20
2018-12-19T17:55:15.135Z,93.84
2018-12-19T17:57:44.598Z,94.20
2018-12-19T18:00:14.323Z,93.99
2018-12-19T18:02:43.772Z,93.54
2018-12-19T18:05:13.313Z,93.73
2018-12-19T18:07:42.845Z,93.85
2018-12-19T18:10:12.600Z,93.84
2018-12-19T18:12:42.359Z,93.75
2018-12-19T18:15:11.841Z,93.55
2018-12-19T18:17:41.242Z,93.80
2018-12-19T18:20:10.939Z,93.46
2018-12-19T18:22:40.334Z,93.60
2018-12-19T18:25:09.807Z,93.35
2018-12-19T18:27:39.386Z,93.32
2018-12-19T18:30:10.602Z,93.45
2018-12-19T18:32:40.300Z,93.18
2018-12-19T18:35:10.474Z,93.31
2018-12-19T18:37:39.992Z,93.17
2018-12-19T18:40:09.958Z,93.46
2018-12-19T18:42:39.838Z,92.87
2018-12-19T18:45:12.010Z,92.96
2018-12-19T18:47:40.961Z,93.09
2018-12-19T18:50:10.898Z,93.12
2018-12-19T18:52:40.487Z,92.83
2018-12-19T18:55:10.257Z,93.04
2018-12-19T18:57:39.697Z,92.88
2018-12-19T19:00:10.524Z,93.10
2018-12-19T19:12:38.300Z,93.08
2018-12-19T19:27:35.477Z,92.41
2018-12-19T19:30:12.551Z,92.88
2018-12-19T19:32:46.469Z,92.39
2018-12-19T19:35:16.345Z,92.13
2018-12-19T19:37:45.836Z,92.55
2018-12-19T19:40:15.545Z,92.65
2018-12-19T19:42:45.291Z,92.55
2018-12-19T19:47:43.925Z,92.30
2018-12-19T19:50:24.866Z,92.45
2018-12-19T20:02:14.594Z,92.68
2018-12-19T20:04:49.849Z,92.71
2018-12-19T20:07:23.222Z,92.43
2018-12-19T20:09:52.932Z,92.61
2018-12-19T20:12:22.576Z,92.89
2018-12-19T20:14:52.263Z,92.70
2018-12-19T20:20:26.066Z,92.71
2018-12-19T20:29:09.160Z,92.49
2018-12-19T20:41:10.083Z,91.89
2018-12-19T20:50:17.832Z,91.48
2018-12-19T20:52:47.848Z,91.78
2018-12-19T20:55:17.487Z,91.31
2018-12-19T20:57:50.719Z,91.45
2018-12-19T21:00:20.416Z,91.50
2018-12-19T21:02:51.151Z,91.28
2018-12-19T21:09:26.864Z,91.33
2018-12-19T21:11:56.461Z,91.44
2018-12-19T21:14:26.140Z,91.05
2018-12-19T21:17:04.169Z,91.65
2018-12-19T21:19:56.159Z,91.63
2018-12-19T21:22:33.134Z,91.37
2018-12-19T21:34:47.067Z,91.67
